createdAt,value
2023-07-24T00:00:03.437Z,34.98
2023-07-24T00:01:03.453Z,34.98
2023-07-24T00:02:03.449Z,34.98
2023-07-24T00:03:03.513Z,35.08
2023-07-24T00:04:03.480Z,34.88
2023-07-24T00:05:03.445Z,34.98
2023-07-24T00:06:03.454Z,34.88
2023-07-24T00:07:03.423Z,35.08
2023-07-24T00:08:03.429Z,34.88
2023-07-24T00:09:03.422Z,34.98
2023-07-24T00:10:03.478Z,34.69
2023-07-24T00:11:03.423Z,34.98
2023-07-24T00:12:03.440Z,34.98
2023-07-24T00:13:03.441Z,35.08
2023-07-24T00:14:03.436Z,35.08
2023-07-24T00:15:03.430Z,35.27
2023-07-24T00:16:03.432Z,35.17
2023-07-24T00:17:03.472Z,35.17
2023-07-24T00:18:03.541Z,35.17
2023-07-24T00:19:03.427Z,35.17
2023-07-24T00:20:03.433Z,35.17
2023-07-24T00:21:03.427Z,35.08
2023-07-24T00:22:03.438Z,35.17
2023-07-24T00:23:03.427Z,35.17
2023-07-24T00:24:03.434Z,35.47
2023-07-24T00:25:03.427Z,34.88
2023-07-24T00:26:03.458Z,35.27
2023-07-24T00:27:03.431Z,35.47
2023-07-24T00:28:03.436Z,35.17
2023-07-24T00:29:03.435Z,35.17
2023-07-24T00:30:03.442Z,35.57
2023-07-24T00:31:03.440Z,35.27
2023-07-24T00:32:03.442Z,35.08
2023-07-24T00:33:03.485Z,35.27
2023-07-24T00:34:03.440Z,35.27
2023-07-24T00:35:03.435Z,35.27
2023-07-24T00:36:03.445Z,34.98
2023-07-24T00:37:03.449Z,35.27
2023-07-24T00:38:03.447Z,35.27
2023-07-24T00:39:03.437Z,35.37
2023-07-24T00:40:03.445Z,35.57
2023-07-24T00:41:03.439Z,35.37
2023-07-24T00:42:03.465Z,35.47
2023-07-24T00:43:03.437Z,35.57
2023-07-24T00:44:03.458Z,35.76
2023-07-24T00:45:05.412Z,35.76
2023-07-24T00:46:03.480Z,35.47
2023-07-24T00:47:03.499Z,35.57
2023-07-24T00:48:03.473Z,35.57
2023-07-24T00:49:03.442Z,35.86
2023-07-24T00:50:03.446Z,35.86
2023-07-24T00:51:03.440Z,35.76
2023-07-24T00:52:03.448Z,35.66
2023-07-24T00:53:03.450Z,35.76
2023-07-24T00:54:03.447Z,35.66
2023-07-24T00:55:03.441Z,35.96
2023-07-24T00:56:03.479Z,35.86
2023-07-24T00:57:03.441Z,35.86
2023-07-24T00:58:03.475Z,35.86
2023-07-24T00:59:03.439Z,35.96
2023-07-24T01:00:03.449Z,35.96
2023-07-24T01:01:03.520Z,35.76
2023-07-24T01:02:03.454Z,35.76
2023-07-24T01:03:03.514Z,36.07
2023-07-24T01:04:03.453Z,35.86
2023-07-24T01:05:03.455Z,35.76
2023-07-24T01:06:03.453Z,35.96
2023-07-24T01:07:03.446Z,35.76
2023-07-24T01:08:03.453Z,35.96
2023-07-24T01:09:03.453Z,35.96
2023-07-24T01:10:03.460Z,35.76
2023-07-24T01:11:03.447Z,35.88
2023-07-24T01:12:03.460Z,36.07
2023-07-24T01:13:03.454Z,36.54
2023-07-24T01:14:03.485Z,36.55
2023-07-24T01:15:03.449Z,35.96
2023-07-24T01:16:03.458Z,36.34
2023-07-24T01:17:03.490Z,35.68
2023-07-24T01:18:03.507Z,35.96
2023-07-24T01:19:03.455Z,36.05
2023-07-24T01:20:03.457Z,36.07
2023-07-24T01:21:03.452Z,36.15
2023-07-24T01:22:03.465Z,36.24
2023-07-24T01:23:03.460Z,36.54
2023-07-24T01:24:03.474Z,36.44
2023-07-24T01:25:03.452Z,36.05
2023-07-24T01:26:03.490Z,36.15
2023-07-24T01:27:03.565Z,36.73
2023-07-24T01:28:03.466Z,36.75
2023-07-24T01:29:03.459Z,36.44
2023-07-24T01:30:03.489Z,36.54
2023-07-24T01:31:03.495Z,36.63
2023-07-24T01:32:03.515Z,36.34
2023-07-24T01:33:03.503Z,36.46
2023-07-24T01:34:03.491Z,36.54
2023-07-24T01:35:03.478Z,36.24
2023-07-24T01:36:03.467Z,36.36
2023-07-24T01:37:03.462Z,36.24
2023-07-24T01:38:03.473Z,36.26
2023-07-24T01:39:03.467Z,36.63
2023-07-24T01:40:03.482Z,36.34
2023-07-24T01:41:03.464Z,36.75
2023-07-24T01:42:03.473Z,36.54
2023-07-24T01:43:03.463Z,36.44
2023-07-24T01:44:03.474Z,36.15
2023-07-24T01:45:03.463Z,36.54
2023-07-24T01:46:03.556Z,36.93
2023-07-24T01:47:03.535Z,36.83
2023-07-24T01:48:03.499Z,36.83
2023-07-24T01:49:03.469Z,36.83
2023-07-24T01:50:03.474Z,36.54
2023-07-24T01:51:03.485Z,36.54
2023-07-24T01:52:03.491Z,36.73
2023-07-24T01:53:03.476Z,36.63
2023-07-24T01:54:03.475Z,36.93
2023-07-24T01:55:03.472Z,36.93
2023-07-24T01:56:03.498Z,37.02
2023-07-24T01:57:03.484Z,36.63
2023-07-24T01:58:03.480Z,36.94
2023-07-24T01:59:03.476Z,36.93
2023-07-24T02:00:03.490Z,36.83
2023-07-24T02:01:03.480Z,36.73
2023-07-24T02:02:03.513Z,36.73
2023-07-24T02:03:03.646Z,36.54
2023-07-24T02:04:03.494Z,36.73
2023-07-24T02:05:03.480Z,36.73
2023-07-24T02:06:03.481Z,36.83
2023-07-24T02:07:03.479Z,36.93
2023-07-24T02:08:03.487Z,37.04
2023-07-24T02:09:03.487Z,37.02
2023-07-24T02:10:03.500Z,37.12
2023-07-24T02:11:03.476Z,37.24
2023-07-24T02:12:03.501Z,37.12
2023-07-24T02:13:03.483Z,37.02
2023-07-24T02:14:03.476Z,37.14
2023-07-24T02:15:03.501Z,37.12
2023-07-24T02:16:03.506Z,37.14
2023-07-24T02:17:03.499Z,37.41
2023-07-24T02:18:03.501Z,37.32
2023-07-24T02:19:03.492Z,37.32
2023-07-24T02:20:03.495Z,37.32
2023-07-24T02:21:03.498Z,37.32
2023-07-24T02:22:03.479Z,37.12
2023-07-24T02:23:03.486Z,37.51
2023-07-24T02:24:03.482Z,37.51
2023-07-24T02:25:03.492Z,37.41
2023-07-24T02:26:03.481Z,37.41
2023-07-24T02:27:03.491Z,37.51
2023-07-24T02:28:03.484Z,37.32
2023-07-24T02:29:03.493Z,37.41
2023-07-24T02:30:03.484Z,37.32
2023-07-24T02:31:03.505Z,37.32
2023-07-24T02:32:03.515Z,37.62
2023-07-24T02:33:03.491Z,37.51
2023-07-24T02:34:03.513Z,37.22
2023-07-24T02:35:03.495Z,37.22
2023-07-24T02:36:03.502Z,37.51
2023-07-24T02:37:03.491Z,37.41
2023-07-24T02:38:03.486Z,37.22
2023-07-24T02:39:03.497Z,37.62
2023-07-24T02:40:03.488Z,37.43
2023-07-24T02:41:03.494Z,37.32
2023-07-24T02:42:03.488Z,37.51
2023-07-24T02:43:03.496Z,37.51
2023-07-24T02:44:03.495Z,37.22
2023-07-24T02:45:03.499Z,37.32
2023-07-24T02:46:03.561Z,37.80
2023-07-24T02:47:03.496Z,37.41
2023-07-24T02:48:03.500Z,37.43
2023-07-24T02:49:03.502Z,37.60
2023-07-24T02:50:03.531Z,37.51
2023-07-24T02:51:03.506Z,37.41
2023-07-24T02:52:03.493Z,37.22
2023-07-24T02:53:03.498Z,37.41
2023-07-24T02:54:03.503Z,37.70
2023-07-24T02:55:03.499Z,37.80
2023-07-24T02:56:03.513Z,37.90
2023-07-24T02:57:03.519Z,37.90
2023-07-24T02:58:03.496Z,37.80
2023-07-24T02:59:03.519Z,37.80
2023-07-24T03:00:03.510Z,37.70
2023-07-24T03:01:03.542Z,37.70
2023-07-24T03:02:03.498Z,37.51
2023-07-24T03:03:03.600Z,37.41
2023-07-24T03:04:03.496Z,37.60
2023-07-24T03:05:03.510Z,37.60
2023-07-24T03:06:03.525Z,37.41
2023-07-24T03:07:03.509Z,37.90
2023-07-24T03:08:03.506Z,37.60
2023-07-24T03:09:03.509Z,37.92
2023-07-24T03:10:03.501Z,37.70
2023-07-24T03:11:03.515Z,37.90
2023-07-24T03:12:03.501Z,38.19
2023-07-24T03:13:03.511Z,37.51
2023-07-24T03:14:03.501Z,37.90
2023-07-24T03:15:03.508Z,37.90
2023-07-24T03:16:03.544Z,37.70
2023-07-24T03:17:03.794Z,37.90
2023-07-24T03:18:03.525Z,37.80
2023-07-24T03:19:03.517Z,37.70
2023-07-24T03:20:03.508Z,37.80
2023-07-24T03:21:03.511Z,37.90
2023-07-24T03:22:03.535Z,37.80
2023-07-24T03:23:03.512Z,37.80
2023-07-24T03:24:03.517Z,37.80
2023-07-24T03:25:03.519Z,37.90
2023-07-24T03:26:03.507Z,37.80
2023-07-24T03:27:03.517Z,37.80
2023-07-24T03:28:03.507Z,37.70
2023-07-24T03:29:03.514Z,37.80
2023-07-24T03:30:03.507Z,37.90
2023-07-24T03:31:03.613Z,37.70
2023-07-24T03:32:03.508Z,37.70
2023-07-24T03:33:03.573Z,37.99
2023-07-24T03:34:03.512Z,37.70
2023-07-24T03:35:03.518Z,37.80
2023-07-24T03:36:03.515Z,37.80
2023-07-24T03:37:03.518Z,38.39
2023-07-24T03:38:03.537Z,37.70
2023-07-24T03:39:03.532Z,37.60
2023-07-24T03:40:03.517Z,37.82
2023-07-24T03:41:03.520Z,37.80
2023-07-24T03:42:03.514Z,37.80
2023-07-24T03:43:03.526Z,37.80
2023-07-24T03:44:03.522Z,37.80
2023-07-24T03:45:03.525Z,37.70
2023-07-24T03:46:03.538Z,37.90
2023-07-24T03:47:03.542Z,37.82
2023-07-24T03:48:03.592Z,37.99
2023-07-24T03:49:03.534Z,37.80
2023-07-24T03:50:03.529Z,37.99
2023-07-24T03:51:03.544Z,37.99
2023-07-24T03:52:03.524Z,38.19
2023-07-24T03:53:03.530Z,37.99
2023-07-24T03:54:03.554Z,38.09
2023-07-24T03:55:03.537Z,38.09
2023-07-24T03:56:03.521Z,38.19
2023-07-24T03:57:03.528Z,37.99
2023-07-24T03:58:03.523Z,38.29
2023-07-24T03:59:03.532Z,38.19
2023-07-24T04:00:03.529Z,38.19
2023-07-24T04:01:03.617Z,37.99
2023-07-24T04:02:03.522Z,37.90
2023-07-24T04:03:03.570Z,38.19
2023-07-24T04:04:03.525Z,37.99
2023-07-24T04:05:03.532Z,38.19
2023-07-24T04:06:03.527Z,38.19
2023-07-24T04:07:03.545Z,38.29
2023-07-24T04:08:03.527Z,37.99
2023-07-24T04:09:03.550Z,38.09
2023-07-24T04:10:03.602Z,38.19
2023-07-24T04:11:03.534Z,37.90
2023-07-24T04:12:03.532Z,37.80
2023-07-24T04:13:03.533Z,37.90
2023-07-24T04:14:03.533Z,38.19
2023-07-24T04:15:03.537Z,38.19
2023-07-24T04:16:03.530Z,38.39
2023-07-24T04:17:03.557Z,37.80
2023-07-24T04:18:03.594Z,38.29
2023-07-24T04:19:03.536Z,37.99
2023-07-24T04:20:03.536Z,37.99
2023-07-24T04:21:03.542Z,37.99
2023-07-24T04:22:03.541Z,38.19
2023-07-24T04:23:03.552Z,38.09
2023-07-24T04:24:03.532Z,38.09
2023-07-24T04:25:03.562Z,38.19
2023-07-24T04:26:03.558Z,37.80
2023-07-24T04:27:03.540Z,38.39
2023-07-24T04:28:03.536Z,38.29
2023-07-24T04:29:03.541Z,38.09
2023-07-24T04:30:03.537Z,38.29
2023-07-24T04:31:03.686Z,38.19
2023-07-24T04:32:03.545Z,38.29
2023-07-24T04:33:03.588Z,37.80
2023-07-24T04:34:03.539Z,37.99
2023-07-24T04:35:03.552Z,37.90
2023-07-24T04:36:03.536Z,38.19
2023-07-24T04:37:03.548Z,38.29
2023-07-24T04:38:03.542Z,38.39
2023-07-24T04:39:03.545Z,38.29
2023-07-24T04:40:03.539Z,37.99
2023-07-24T04:41:03.545Z,38.19
2023-07-24T04:42:03.581Z,38.48
2023-07-24T04:43:03.547Z,38.57
2023-07-24T04:44:03.548Z,38.77
2023-07-24T04:45:03.547Z,38.57
2023-07-24T04:46:03.567Z,38.57
2023-07-24T04:47:03.635Z,38.87
2023-07-24T04:48:03.566Z,38.77
2023-07-24T04:49:03.558Z,38.48
2023-07-24T04:50:03.551Z,39.26
2023-07-24T04:51:03.562Z,39.16
2023-07-24T04:52:03.547Z,39.26
2023-07-24T04:53:03.551Z,39.16
2023-07-24T04:54:03.548Z,39.06
2023-07-24T04:55:03.557Z,39.06
2023-07-24T04:56:03.547Z,38.96
2023-07-24T04:57:03.553Z,38.96
2023-07-24T04:58:03.571Z,39.06
2023-07-24T04:59:03.556Z,39.06
2023-07-24T05:00:03.555Z,39.06
2023-07-24T05:01:03.554Z,38.96
2023-07-24T05:02:03.627Z,38.96
2023-07-24T05:03:03.570Z,39.06
2023-07-24T05:04:03.554Z,39.26
2023-07-24T05:05:03.577Z,39.16
2023-07-24T05:06:03.554Z,39.26
2023-07-24T05:07:03.556Z,39.16
2023-07-24T05:08:03.551Z,39.16
2023-07-24T05:09:03.557Z,39.16
2023-07-24T05:10:03.597Z,39.06
2023-07-24T05:11:03.558Z,39.06
2023-07-24T05:12:03.550Z,39.26
2023-07-24T05:13:03.561Z,38.96
2023-07-24T05:14:03.578Z,39.36
2023-07-24T05:15:03.566Z,39.16
2023-07-24T05:16:03.562Z,39.26
2023-07-24T05:17:03.581Z,39.36
2023-07-24T05:18:03.567Z,39.75
2023-07-24T05:19:03.590Z,39.75
2023-07-24T05:20:03.568Z,39.75
2023-07-24T05:21:03.561Z,40.23
2023-07-24T05:22:03.566Z,40.03
2023-07-24T05:23:03.588Z,40.03
2023-07-24T05:24:03.568Z,40.13
2023-07-24T05:25:03.579Z,40.13
2023-07-24T05:26:03.556Z,39.45
2023-07-24T05:27:03.575Z,39.45
2023-07-24T05:28:03.555Z,39.55
2023-07-24T05:29:03.564Z,39.84
2023-07-24T05:30:03.583Z,39.75
2023-07-24T05:31:03.600Z,39.84
2023-07-24T05:32:03.592Z,39.75
2023-07-24T05:33:03.626Z,39.75
2023-07-24T05:34:03.565Z,39.72
2023-07-24T05:35:03.573Z,39.75
2023-07-24T05:36:03.558Z,39.75
2023-07-24T05:37:03.570Z,40.03
2023-07-24T05:38:03.565Z,39.36
2023-07-24T05:39:03.569Z,39.55
2023-07-24T05:40:03.564Z,39.26
2023-07-24T05:41:03.572Z,39.16
2023-07-24T05:42:03.593Z,39.16
2023-07-24T05:43:03.571Z,39.26
2023-07-24T05:44:03.560Z,39.26
2023-07-24T05:45:03.568Z,39.45
2023-07-24T05:46:03.635Z,39.94
2023-07-24T05:47:03.569Z,39.75
2023-07-24T05:48:03.602Z,39.45
2023-07-24T05:49:03.575Z,40.03
2023-07-24T05:50:03.565Z,40.03
2023-07-24T05:51:03.583Z,39.94
2023-07-24T05:52:03.576Z,40.03
2023-07-24T05:53:03.573Z,39.94
2023-07-24T05:54:03.565Z,40.23
2023-07-24T05:55:03.573Z,40.13
2023-07-24T05:56:03.566Z,39.84
2023-07-24T05:57:03.580Z,39.94
2023-07-24T05:58:03.566Z,40.03
2023-07-24T05:59:03.574Z,39.84
2023-07-24T06:00:03.568Z,40.03
2023-07-24T06:01:03.586Z,40.23
2023-07-24T06:02:03.750Z,40.03
2023-07-24T06:03:05.496Z,39.94
2023-07-24T06:04:03.698Z,40.23
2023-07-24T06:05:03.592Z,40.13
2023-07-24T06:06:03.576Z,39.55
2023-07-24T06:07:03.578Z,39.55
2023-07-24T06:08:03.573Z,39.75
2023-07-24T06:09:03.581Z,40.03
2023-07-24T06:10:03.595Z,40.03
2023-07-24T06:11:03.576Z,40.23
2023-07-24T06:12:03.572Z,39.84
2023-07-24T06:13:03.580Z,40.23
2023-07-24T06:14:03.577Z,41.01
2023-07-24T06:15:03.602Z,41.59
2023-07-24T06:16:03.600Z,41.30
2023-07-24T06:17:03.582Z,41.98
2023-07-24T06:18:03.617Z,41.78
2023-07-24T06:19:03.582Z,41.30
2023-07-24T06:20:03.576Z,41.39
2023-07-24T06:21:03.582Z,41.30
2023-07-24T06:22:03.593Z,41.39
2023-07-24T06:23:03.586Z,41.59
2023-07-24T06:24:03.586Z,41.30
2023-07-24T06:25:03.585Z,41.69
2023-07-24T06:26:03.577Z,41.98
2023-07-24T06:27:03.589Z,41.98
2023-07-24T06:28:03.579Z,41.98
2023-07-24T06:29:03.578Z,41.67
2023-07-24T06:30:13.683Z,41.28
2023-07-24T06:31:03.608Z,41.39
2023-07-24T06:32:03.587Z,41.30
2023-07-24T06:33:03.680Z,41.10
2023-07-24T06:34:03.706Z,41.39
2023-07-24T06:35:03.587Z,41.59
2023-07-24T06:36:03.587Z,41.59
2023-07-24T06:37:16.732Z,41.30
2023-07-24T06:38:03.599Z,41.30
2023-07-24T06:39:03.591Z,41.20
2023-07-24T06:40:03.606Z,41.01
2023-07-24T06:41:03.582Z,41.01
2023-07-24T06:42:03.591Z,40.81
2023-07-24T06:43:03.614Z,40.52
2023-07-24T06:44:03.591Z,41.20
2023-07-24T06:45:04.361Z,40.91
2023-07-24T06:46:03.653Z,41.01
2023-07-24T06:47:03.586Z,40.81
2023-07-24T06:48:03.646Z,41.10
2023-07-24T06:49:03.584Z,40.91
2023-07-24T06:50:03.640Z,40.52
2023-07-24T06:51:03.637Z,40.52
2023-07-24T06:52:03.598Z,40.33
2023-07-24T06:53:03.589Z,40.62
2023-07-24T06:54:03.597Z,40.52
2023-07-24T06:55:03.586Z,41.10
2023-07-24T06:56:03.604Z,40.91
2023-07-24T06:57:03.602Z,41.10
2023-07-24T06:58:03.598Z,41.01
2023-07-24T06:59:03.590Z,41.10
2023-07-24T07:00:03.605Z,40.91
2023-07-24T07:01:03.634Z,41.20
2023-07-24T07:02:03.600Z,41.10
2023-07-24T07:03:03.664Z,41.10
2023-07-24T07:04:03.672Z,41.30
2023-07-24T07:05:03.595Z,41.20
2023-07-24T07:06:03.625Z,41.20
2023-07-24T07:07:03.596Z,41.30
2023-07-24T07:08:03.601Z,41.39
2023-07-24T07:09:03.597Z,41.49
2023-07-24T07:10:03.611Z,41.49
2023-07-24T07:11:03.633Z,41.30
2023-07-24T07:12:03.604Z,41.30
2023-07-24T07:13:03.604Z,41.20
2023-07-24T07:14:03.609Z,41.20
2023-07-24T07:15:03.607Z,41.20
2023-07-24T07:16:03.639Z,41.39
2023-07-24T07:17:03.598Z,41.30
2023-07-24T07:18:03.632Z,41.01
2023-07-24T07:19:03.599Z,41.10
2023-07-24T07:20:03.620Z,41.01
2023-07-24T07:21:03.599Z,41.30
2023-07-24T07:22:03.632Z,41.01
2023-07-24T07:23:03.598Z,40.91
2023-07-24T07:24:03.612Z,41.01
2023-07-24T07:25:03.601Z,41.01
2023-07-24T07:26:03.607Z,40.72
2023-07-24T07:27:03.603Z,40.72
2023-07-24T07:28:03.614Z,40.81
2023-07-24T07:29:03.604Z,41.10
2023-07-24T07:30:03.615Z,41.01
2023-07-24T07:31:03.636Z,41.20
2023-07-24T07:32:03.612Z,41.01
2023-07-24T07:33:03.635Z,40.91
2023-07-24T07:34:03.617Z,40.72
2023-07-24T07:35:03.609Z,40.52
2023-07-24T07:36:03.617Z,40.81
2023-07-24T07:37:03.605Z,40.62
2023-07-24T07:38:03.633Z,40.72
2023-07-24T07:39:03.605Z,40.91
2023-07-24T07:40:03.613Z,40.91
2023-07-24T07:41:03.606Z,40.91
2023-07-24T07:42:16.486Z,40.72
2023-07-24T07:43:03.614Z,41.10
2023-07-24T07:44:03.614Z,41.10
2023-07-24T07:45:03.607Z,41.10
2023-07-24T07:46:03.618Z,41.30
2023-07-24T07:47:03.634Z,41.30
2023-07-24T07:48:03.657Z,41.59
2023-07-24T07:49:03.610Z,41.49
2023-07-24T07:50:03.622Z,41.20
2023-07-24T07:51:03.606Z,41.49
2023-07-24T07:52:03.619Z,41.49
2023-07-24T07:53:03.608Z,41.69
2023-07-24T07:54:03.641Z,41.78
2023-07-24T07:55:03.610Z,42.76
2023-07-24T07:56:03.642Z,42.85
2023-07-24T07:57:03.611Z,42.46
2023-07-24T07:58:03.644Z,42.76
2023-07-24T07:59:03.610Z,43.15
2023-07-24T08:00:03.616Z,42.95
2023-07-24T08:01:03.664Z,43.34
2023-07-24T08:02:03.624Z,43.44
2023-07-24T08:03:03.690Z,43.82
2023-07-24T08:04:03.618Z,44.02
2023-07-24T08:05:10.829Z,43.73
2023-07-24T08:06:03.622Z,44.31
2023-07-24T08:07:03.621Z,44.21
2023-07-24T08:08:03.618Z,44.51
2023-07-24T08:09:03.613Z,44.60
2023-07-24T08:10:03.653Z,44.31
2023-07-24T08:11:03.617Z,44.60
2023-07-24T08:12:04.152Z,44.29
2023-07-24T08:13:03.612Z,44.38
2023-07-24T08:14:03.622Z,44.58
2023-07-24T08:15:03.614Z,44.31
2023-07-24T08:16:03.619Z,44.79
2023-07-24T08:17:03.718Z,44.79
2023-07-24T08:18:03.829Z,44.70
2023-07-24T08:19:03.617Z,44.51
2023-07-24T08:20:03.633Z,44.51
2023-07-24T08:21:03.613Z,45.09
2023-07-24T08:22:03.623Z,44.78
2023-07-24T08:23:03.615Z,44.58
2023-07-24T08:24:03.631Z,44.38
2023-07-24T08:25:03.628Z,44.31
2023-07-24T08:26:03.657Z,45.18
2023-07-24T08:27:03.614Z,45.07
2023-07-24T08:28:06.300Z,44.78
2023-07-24T08:29:03.620Z,45.36
2023-07-24T08:30:03.641Z,45.09
2023-07-24T08:31:07.078Z,44.99
2023-07-24T08:32:03.721Z,44.70
2023-07-24T08:33:03.672Z,45.38
2023-07-24T08:34:03.627Z,44.51
2023-07-24T08:35:03.618Z,44.89
2023-07-24T08:36:03.624Z,45.09
2023-07-24T08:37:03.633Z,45.38
2023-07-24T08:38:03.626Z,45.38
2023-07-24T08:39:03.631Z,45.48
2023-07-24T08:40:03.625Z,45.38
2023-07-24T08:41:03.618Z,45.57
2023-07-24T08:42:03.664Z,45.67
2023-07-24T08:43:03.623Z,45.48
2023-07-24T08:44:03.626Z,45.48
2023-07-24T08:45:03.630Z,45.28
2023-07-24T08:46:03.628Z,45.57
2023-07-24T08:47:03.764Z,45.48
2023-07-24T08:48:03.705Z,45.77
2023-07-24T08:49:03.622Z,46.15
2023-07-24T08:50:03.682Z,45.87
2023-07-24T08:51:03.624Z,45.87
2023-07-24T08:52:03.632Z,45.97
2023-07-24T08:53:03.630Z,46.45
2023-07-24T08:54:03.632Z,45.97
2023-07-24T08:55:03.637Z,45.87
2023-07-24T08:56:03.635Z,45.94
2023-07-24T08:57:03.674Z,45.84
2023-07-24T08:58:03.844Z,45.84
2023-07-24T08:59:03.626Z,45.84
2023-07-24T09:00:03.635Z,45.97
2023-07-24T09:01:03.692Z,45.55
2023-07-24T09:02:03.638Z,45.75
2023-07-24T09:03:03.668Z,45.87
2023-07-24T09:04:03.671Z,45.94
2023-07-24T09:05:03.641Z,45.97
2023-07-24T09:06:03.636Z,45.77
2023-07-24T09:07:03.627Z,45.57
2023-07-24T09:08:03.643Z,45.67
2023-07-24T09:09:03.639Z,45.75
2023-07-24T09:10:03.637Z,45.97
2023-07-24T09:11:03.630Z,45.75
2023-07-24T09:12:03.638Z,45.75
2023-07-24T09:13:03.633Z,45.55
2023-07-24T09:14:13.738Z,45.65
2023-07-24T09:15:03.634Z,45.84
2023-07-24T09:16:03.853Z,45.55
2023-07-24T09:17:03.781Z,45.94
2023-07-24T09:18:04.484Z,46.23
2023-07-24T09:19:11.181Z,45.94
2023-07-24T09:20:03.641Z,46.04
2023-07-24T09:21:03.633Z,45.84
2023-07-24T09:22:03.640Z,45.84
2023-07-24T09:23:15.327Z,45.84
2023-07-24T09:24:03.640Z,45.75
2023-07-24T09:25:03.636Z,45.84
2023-07-24T09:26:03.641Z,45.94
2023-07-24T09:27:03.806Z,45.55
2023-07-24T09:28:03.642Z,45.75
2023-07-24T09:29:03.637Z,45.65
2023-07-24T09:30:03.684Z,46.23
2023-07-24T09:31:03.758Z,45.94
2023-07-24T09:32:03.643Z,45.65
2023-07-24T09:33:03.742Z,45.75
2023-07-24T09:34:03.664Z,45.94
2023-07-24T09:35:06.109Z,46.04
2023-07-24T09:36:03.648Z,45.75
2023-07-24T09:37:03.650Z,46.04
2023-07-24T09:38:03.648Z,45.75
2023-07-24T09:39:03.639Z,45.87
2023-07-24T09:40:03.655Z,45.84
2023-07-24T09:41:03.658Z,45.36
2023-07-24T09:42:03.668Z,45.28
2023-07-24T09:43:30.205Z,45.45
2023-07-24T09:44:03.649Z,45.77
2023-07-24T09:45:03.645Z,45.97
2023-07-24T09:46:03.863Z,45.97
2023-07-24T09:47:25.934Z,45.48
2023-07-24T09:48:07.927Z,45.38
2023-07-24T09:50:03.661Z,45.28
2023-07-24T09:51:03.640Z,45.38
2023-07-24T09:52:03.662Z,45.67
2023-07-24T09:53:03.640Z,45.38
2023-07-24T09:54:03.647Z,45.38
2023-07-24T09:55:03.646Z,45.48
2023-07-24T09:56:03.648Z,45.77
2023-07-24T09:57:15.325Z,45.97
2023-07-24T09:58:03.649Z,46.06
2023-07-24T09:59:03.647Z,46.55
2023-07-24T10:00:03.650Z,45.87
2023-07-24T10:01:03.644Z,46.06
2023-07-24T10:02:04.096Z,45.48
2023-07-24T10:03:03.666Z,45.57
2023-07-24T10:04:03.717Z,45.87
2023-07-24T10:05:03.645Z,45.48
2023-07-24T10:06:03.656Z,45.57
2023-07-24T10:07:03.644Z,45.48
2023-07-24T10:08:03.655Z,45.57
2023-07-24T10:09:03.664Z,45.38
2023-07-24T10:10:03.653Z,45.48
2023-07-24T10:11:03.646Z,45.48
2023-07-24T10:12:03.654Z,45.57
2023-07-24T10:13:03.647Z,45.67
2023-07-24T10:14:03.660Z,45.57
2023-07-24T10:15:03.650Z,45.38
2023-07-24T10:16:03.678Z,45.67
2023-07-24T10:17:03.652Z,45.38
2023-07-24T10:18:03.738Z,45.09
2023-07-24T10:19:03.653Z,44.89
2023-07-24T10:20:03.660Z,44.89
2023-07-24T10:21:03.664Z,44.99
2023-07-24T10:22:03.657Z,45.28
2023-07-24T10:23:03.656Z,45.48
2023-07-24T10:24:03.658Z,45.18
2023-07-24T10:25:03.709Z,45.28
2023-07-24T10:26:03.662Z,44.89
2023-07-24T10:27:03.680Z,44.79
2023-07-24T10:28:03.672Z,44.60
2023-07-24T10:29:03.658Z,44.51
2023-07-24T10:30:11.516Z,44.41
2023-07-24T10:31:03.727Z,44.60
2023-07-24T10:32:03.776Z,44.51
2023-07-24T10:33:03.779Z,44.79
2023-07-24T10:34:03.712Z,44.79
2023-07-24T10:35:03.660Z,44.51
2023-07-24T10:36:03.667Z,44.51
2023-07-24T10:37:03.662Z,44.41
2023-07-24T10:38:03.669Z,44.41
2023-07-24T10:39:03.671Z,44.12
2023-07-24T10:40:03.669Z,44.21
2023-07-24T10:41:03.678Z,44.31
2023-07-24T10:42:03.681Z,44.51
2023-07-24T10:43:03.663Z,44.51
2023-07-24T10:44:03.701Z,44.41
2023-07-24T10:45:03.688Z,44.70
2023-07-24T10:46:03.694Z,44.12
2023-07-24T10:47:03.686Z,44.21
2023-07-24T10:48:03.705Z,44.41
2023-07-24T10:49:03.683Z,43.92
2023-07-24T10:50:03.744Z,44.31
2023-07-24T10:51:03.677Z,43.82
2023-07-24T10:52:03.670Z,43.82
2023-07-24T10:53:03.702Z,44.02
2023-07-24T10:54:03.669Z,44.12
2023-07-24T10:55:03.684Z,44.24
2023-07-24T10:56:03.674Z,44.02
2023-07-24T10:57:03.696Z,44.41
2023-07-24T10:58:03.677Z,44.41
2023-07-24T10:59:03.680Z,44.41
2023-07-24T11:00:03.674Z,43.95
2023-07-24T11:01:03.703Z,44.21
2023-07-24T11:02:03.673Z,44.51
2023-07-24T11:03:03.749Z,44.51
2023-07-24T11:04:03.680Z,44.12
2023-07-24T11:05:03.836Z,44.21
2023-07-24T11:06:03.766Z,44.31
2023-07-24T11:07:03.683Z,44.21
2023-07-24T11:08:03.677Z,44.41
2023-07-24T11:09:03.687Z,44.21
2023-07-24T11:10:03.689Z,44.31
2023-07-24T11:11:03.684Z,44.12
2023-07-24T11:12:03.678Z,44.02
2023-07-24T11:13:03.686Z,44.51
2023-07-24T11:14:03.678Z,44.31
2023-07-24T11:15:03.714Z,44.51
2023-07-24T11:16:03.733Z,44.51
2023-07-24T11:17:03.692Z,44.41
2023-07-24T11:18:03.775Z,44.41
2023-07-24T11:19:03.688Z,44.51
2023-07-24T11:20:03.690Z,44.41
2023-07-24T11:21:03.690Z,44.70
2023-07-24T11:22:03.707Z,44.12
2023-07-24T11:23:03.706Z,43.92
2023-07-24T11:24:03.684Z,44.31
2023-07-24T11:25:03.690Z,44.21
2023-07-24T11:26:03.684Z,44.12
2023-07-24T11:27:03.691Z,44.31
2023-07-24T11:28:03.684Z,44.41
2023-07-24T11:29:03.692Z,44.41
2023-07-24T11:30:03.687Z,44.31
2023-07-24T11:31:03.755Z,44.31
2023-07-24T11:32:03.695Z,44.31
2023-07-24T11:33:03.758Z,44.31
2023-07-24T11:34:03.700Z,44.31
2023-07-24T11:35:03.694Z,44.31
2023-07-24T11:36:03.688Z,44.21
2023-07-24T11:37:03.701Z,44.12
2023-07-24T11:38:03.716Z,44.70
2023-07-24T11:39:03.696Z,44.51
2023-07-24T11:40:03.687Z,44.60
2023-07-24T11:41:03.697Z,44.41
2023-07-24T11:42:03.692Z,44.60
2023-07-24T11:43:03.696Z,44.79
2023-07-24T11:44:03.695Z,44.89
2023-07-24T11:45:03.698Z,44.89
2023-07-24T11:46:03.692Z,44.78
2023-07-24T11:47:03.740Z,44.70
2023-07-24T11:48:03.711Z,45.09
2023-07-24T11:49:03.701Z,45.18
2023-07-24T11:50:03.693Z,44.89
2023-07-24T11:51:03.701Z,45.26
2023-07-24T11:52:03.694Z,45.38
2023-07-24T11:53:03.725Z,45.18
2023-07-24T11:54:03.722Z,45.18
2023-07-24T11:55:03.705Z,44.70
2023-07-24T11:56:03.703Z,45.26
2023-07-24T11:57:03.720Z,45.17
2023-07-24T11:58:03.717Z,44.99
2023-07-24T11:59:03.708Z,44.79
2023-07-24T12:00:03.697Z,44.79
2023-07-24T12:01:03.714Z,44.41
2023-07-24T12:02:03.720Z,44.60
2023-07-24T12:03:03.913Z,44.60
2023-07-24T12:04:03.753Z,44.38
2023-07-24T12:05:03.742Z,44.58
2023-07-24T12:06:03.704Z,44.41
2023-07-24T12:07:03.712Z,44.51
2023-07-24T12:08:05.079Z,44.51
2023-07-24T12:09:03.734Z,44.48
2023-07-24T12:10:03.728Z,44.29
2023-07-24T12:11:03.762Z,44.70
2023-07-24T12:12:03.700Z,44.79
2023-07-24T12:13:03.731Z,45.38
2023-07-24T12:14:03.702Z,45.07
2023-07-24T12:15:03.727Z,45.09
2023-07-24T12:16:03.745Z,44.99
2023-07-24T12:17:03.717Z,44.97
2023-07-24T12:18:05.403Z,44.97
2023-07-24T12:19:03.708Z,44.87
2023-07-24T12:20:03.706Z,44.89
2023-07-24T12:21:03.717Z,44.78
2023-07-24T12:22:03.709Z,44.78
2023-07-24T12:23:03.748Z,45.09
2023-07-24T12:24:03.706Z,45.18
2023-07-24T12:25:03.716Z,45.48
2023-07-24T12:26:03.762Z,44.87
2023-07-24T12:27:03.713Z,44.79
2023-07-24T12:28:03.709Z,44.41
2023-07-24T12:29:03.712Z,44.48
2023-07-24T12:30:03.711Z,44.41
2023-07-24T12:31:03.828Z,44.41
2023-07-24T12:32:03.731Z,44.51
2023-07-24T12:33:03.736Z,44.51
2023-07-24T12:34:03.718Z,44.41
2023-07-24T12:35:03.736Z,44.41
2023-07-24T12:36:03.710Z,44.41
2023-07-24T12:37:03.719Z,44.60
2023-07-24T12:38:03.727Z,44.12
2023-07-24T12:39:03.721Z,44.51
2023-07-24T12:40:03.713Z,43.92
2023-07-24T12:41:03.727Z,44.21
2023-07-24T12:42:03.744Z,44.31
2023-07-24T12:43:03.735Z,44.31
2023-07-24T12:44:03.712Z,44.41
2023-07-24T12:45:03.720Z,44.21
2023-07-24T12:46:03.712Z,44.21
2023-07-24T12:47:03.722Z,44.21
2023-07-24T12:48:03.774Z,44.31
2023-07-24T12:49:03.723Z,44.21
2023-07-24T12:50:05.664Z,44.21
2023-07-24T12:51:03.732Z,44.02
2023-07-24T12:52:03.718Z,43.82
2023-07-24T12:53:05.146Z,44.02